Time;durP1;ratioP1;P1;durP2;ratioP2;P2;SDS_P1;SDS_P2;PMS_P1;PMS_P2;Temp;Humidity;BMP_temperature;BMP_pressure;BME280_temperature;BME280_humidity;BME280_pressure;Samples;Min_cycle;Max_cycle;Signal;HPM_P1;HPM_P2
2023/01/01 00:00:11;;;;;;;209.17;124.80;;;14.40;74.20;;;;;;5033440;28;20831;-74
2023/01/01 00:02:37;;;;;;;201.70;122.63;;;14.30;74.30;;;;;;5028174;28;20617;-74
2023/01/01 00:05:04;;;;;;;179.60;111.67;;;14.30;74.50;;;;;;5030897;28;20456;-72
2023/01/01 00:07:30;;;;;;;184.03;104.40;;;14.30;74.60;;;;;;5034359;28;20697;-72
2023/01/01 00:12:40;;;;;;;109.10;59.37;;;14.20;74.80;;;;;;5035716;28;20569;-74
2023/01/01 00:15:06;;;;;;;99.13;55.87;;;14.20;74.80;;;;;;5030649;28;20460;-74
2023/01/01 00:17:31;;;;;;;74.20;43.30;;;14.20;74.60;;;;;;5031189;28;20264;-77
2023/01/01 00:19:57;;;;;;;51.33;27.47;;;14.30;74.50;;;;;;5037099;28;20924;-78
2023/01/01 00:22:24;;;;;;;75.23;40.17;;;14.30;74.30;;;;;;5037409;28;20214;-78
2023/01/01 00:24:50;;;;;;;27.30;16.40;;;14.40;74.20;;;;;;5037362;28;20257;-74
2023/01/01 00:27:16;;;;;;;21.77;12.63;;;14.50;73.90;;;;;;5039504;28;20707;-79
2023/01/01 00:29:41;;;;;;;54.50;30.20;;;14.70;73.20;;;;;;5035072;28;20177;-78
2023/01/01 00:32:07;;;;;;;44.60;24.20;;;14.80;72.90;;;;;;5032590;28;20194;-77
2023/01/01 00:34:32;;;;;;;40.17;23.90;;;14.90;72.90;;;;;;5028294;28;20218;-77
2023/01/01 00:36:58;;;;;;;57.33;33.60;;;14.80;72.90;;;;;;5029392;28;20270;-78
2023/01/01 00:39:24;;;;;;;64.63;33.50;;;14.80;73.20;;;;;;5033510;28;20202;-76
2023/01/01 00:41:49;;;;;;;62.67;33.90;;;14.70;73.30;;;;;;5032356;28;20201;-75
2023/01/01 00:44:15;;;;;;;53.90;32.50;;;14.50;73.60;;;;;;5030022;28;20688;-74
2023/01/01 00:46:40;;;;;;;30.60;19.07;;;14.50;74.00;;;;;;5034433;28;20177;-76
2023/01/01 00:49:06;;;;;;;44.10;26.50;;;14.50;73.90;;;;;;5039063;28;20191;-74
2023/01/01 00:51:32;;;;;;;93.73;41.40;;;14.50;73.90;;;;;;5032772;28;20212;-74
2023/01/01 00:53:57;;;;;;;52.50;26.93;;;14.50;73.90;;;;;;5035125;28;20203;-75
2023/01/01 00:56:23;;;;;;;46.07;27.17;;;14.50;74.00;;;;;;5035763;28;20587;-75
2023/01/01 00:58:48;;;;;;;44.00;25.30;;;14.30;74.20;;;;;;5031633;28;20282;-76
2023/01/01 01:01:15;;;;;;;48.30;25.80;;;14.30;74.30;;;;;;5031507;28;20720;-75
2023/01/01 01:03:41;;;;;;;56.20;28.70;;;14.30;74.30;;;;;;5028325;28;20197;-74
2023/01/01 01:06:09;;;;;;;34.53;22.30;;;14.20;74.50;;;;;;5027820;28;20420;-74
2023/01/01 01:08:37;;;;;;;41.83;21.73;;;14.10;74.60;;;;;;5035758;28;20182;-75
2023/01/01 01:11:15;;;;;;;46.67;21.87;;;14.10;74.60;;;;;;5035719;28;20422;-73
2023/01/01 01:13:43;;;;;;;35.97;20.43;;;14.10;74.80;;;;;;5029533;28;20472;-74
2023/01/01 01:16:18;;;;;;;32.00;18.40;;;14.00;74.90;;;;;;5045167;28;20416;-73
2023/01/01 01:18:44;;;;;;;33.90;18.50;;;14.00;74.80;;;;;;5046470;28;20424;-76
2023/01/01 01:21:14;;;;;;;32.30;20.20;;;14.00;74.90;;;;;;5045593;28;20482;-75
2023/01/01 01:23:40;;;;;;;34.37;19.00;;;14.00;75.20;;;;;;5037756;28;20467;-75
2023/01/01 01:26:27;;;;;;;26.17;18.07;;;13.90;75.20;;;;;;5036900;28;20452;-75
2023/01/01 01:28:53;;;;;;;29.50;17.53;;;13.90;75.50;;;;;;5034523;28;20166;-76
2023/01/01 01:31:21;;;;;;;34.03;18.40;;;13.80;75.50;;;;;;5035516;28;20440;-74
2023/01/01 01:33:47;;;;;;;35.90;17.77;;;13.80;75.70;;;;;;5034802;28;20460;-75
2023/01/01 01:36:14;;;;;;;27.93;16.20;;;13.80;75.50;;;;;;5032082;28;20420;-76
2023/01/01 01:38:41;;;;;;;29.03;16.77;;;13.70;75.50;;;;;;5031150;28;20469;-76
2023/01/01 01:41:07;;;;;;;33.37;15.70;;;13.70;75.70;;;;;;5033088;28;20483;-75
2023/01/01 01:43:32;;;;;;;26.60;15.43;;;13.60;75.80;;;;;;5034000;28;20547;-75
2023/01/01 01:46:04;;;;;;;23.57;15.13;;;13.70;75.90;;;;;;5035236;28;20516;-76
2023/01/01 01:48:34;;;;;;;30.10;16.63;;;13.60;75.90;;;;;;5032700;28;20655;-74
2023/01/01 01:51:00;;;;;;;26.13;14.93;;;13.60;76.10;;;;;;5036598;28;20428;-74
2023/01/01 01:53:29;;;;;;;28.67;16.30;;;13.50;76.20;;;;;;5035737;28;20520;-75
2023/01/01 01:56:03;;;;;;;31.17;16.60;;;13.60;76.20;;;;;;5035445;28;20677;-77
2023/01/01 01:58:31;;;;;;;31.73;17.03;;;13.50;76.40;;;;;;5035828;28;20440;-76
2023/01/01 02:00:56;;;;;;;29.20;16.10;;;13.40;76.70;;;;;;5040354;28;20456;-76
2023/01/01 02:03:30;;;;;;;34.10;17.23;;;13.30;77.00;;;;;;5040621;28;20469;-75
2023/01/01 02:05:56;;;;;;;29.23;15.80;;;13.20;77.30;;;;;;5035860;28;20208;-76
2023/01/01 02:08:22;;;;;;;25.80;15.20;;;13.20;77.40;;;;;;5036882;28;20442;-75
2023/01/01 02:10:48;;;;;;;28.57;16.50;;;13.10;77.60;;;;;;5036852;28;20498;-78
2023/01/01 02:13:14;;;;;;;24.43;14.97;;;13.00;78.00;;;;;;5037144;28;20585;-75
2023/01/01 02:16:13;;;;;;;22.43;14.13;;;13.00;77.80;;;;;;5030029;28;20328;-75
2023/01/01 02:19:03;;;;;;;25.40;14.33;;;13.00;78.00;;;;;;5022732;28;20434;-75
2023/01/01 02:21:43;;;;;;;25.60;14.03;;;13.00;78.00;;;;;;5033586;28;20458;-76
2023/01/01 02:24:19;;;;;;;22.27;13.60;;;13.00;77.60;;;;;;5033346;28;20449;-75
2023/01/01 02:27:16;;;;;;;21.63;12.27;;;13.00;77.60;;;;;;5037039;28;20424;-77
2023/01/01 02:29:59;;;;;;;28.23;14.20;;;13.00;77.60;;;;;;5031956;28;20408;-76
2023/01/01 02:33:02;;;;;;;28.17;15.37;;;13.00;77.60;;;;;;5031404;28;20545;-75
2023/01/01 02:35:37;;;;;;;24.13;13.47;;;13.10;77.60;;;;;;5026951;28;20463;-75
2023/01/01 02:38:33;;;;;;;25.37;14.10;;;13.10;77.40;;;;;;5035691;28;20423;-74
2023/01/01 02:41:12;;;;;;;19.93;10.00;;;13.10;77.40;;;;;;5035490;28;20479;-77
2023/01/01 02:43:39;;;;;;;18.90;10.60;;;13.10;77.40;;;;;;5034449;28;20434;-76
2023/01/01 02:46:10;;;;;;;15.83;9.80;;;13.10;77.00;;;;;;5031714;28;20428;-76
2023/01/01 02:48:42;;;;;;;19.70;10.63;;;13.40;76.40;;;;;;5032609;28;20413;-76
2023/01/01 02:51:26;;;;;;;18.57;10.77;;;13.50;76.10;;;;;;5038980;28;20420;-75
2023/01/01 02:54:16;;;;;;;18.70;10.97;;;13.50;75.90;;;;;;5037271;28;20634;-75
2023/01/01 02:57:08;;;;;;;16.33;9.53;;;13.50;76.10;;;;;;5040844;28;20443;-77
2023/01/01 03:00:18;;;;;;;18.90;10.87;;;13.50;75.80;;;;;;5038950;28;20416;-76
2023/01/01 03:02:55;;;;;;;17.57;9.33;;;13.50;75.90;;;;;;5033708;28;21027;-77
2023/01/01 03:05:32;;;;;;;17.80;9.70;;;13.50;75.50;;;;;;5032396;28;20474;-75
2023/01/01 03:08:21;;;;;;;17.20;8.13;;;13.50;75.50;;;;;;5029302;28;20408;-77
2023/01/01 03:11:18;;;;;;;14.27;8.03;;;13.60;75.40;;;;;;5037172;28;20471;-76
2023/01/01 03:14:05;;;;;;;14.87;8.57;;;13.60;75.40;;;;;;5034071;28;20524;-76
2023/01/01 03:16:38;;;;;;;16.03;8.30;;;13.60;75.10;;;;;;5036925;28;20421;-75
2023/01/01 03:19:14;;;;;;;12.33;7.30;;;13.80;74.60;;;;;;5033896;28;20413;-74
2023/01/01 03:21:45;;;;;;;14.63;7.77;;;14.00;74.20;;;;;;5037066;28;20467;-74
2023/01/01 03:24:34;;;;;;;16.27;8.20;;;14.10;73.70;;;;;;5033178;28;20453;-76
2023/01/01 03:27:05;;;;;;;13.57;8.13;;;14.10;73.60;;;;;;5021991;28;20978;-76
2023/01/01 03:29:34;;;;;;;13.53;8.00;;;14.10;73.70;;;;;;5028844;28;20420;-74
2023/01/01 03:32:03;;;;;;;16.27;8.07;;;14.10;73.70;;;;;;5025638;28;20420;-74
2023/01/01 03:34:33;;;;;;;19.83;8.40;;;14.10;73.70;;;;;;5033795;28;20451;-75
2023/01/01 03:37:05;;;;;;;13.83;8.20;;;14.00;73.60;;;;;;5028859;28;20421;-74
2023/01/01 03:39:36;;;;;;;16.30;7.77;;;14.00;73.90;;;;;;5035944;28;20421;-76
2023/01/01 03:42:17;;;;;;;13.70;7.40;;;14.00;74.20;;;;;;5036867;28;20473;-75
2023/01/01 03:44:48;;;;;;;13.30;7.63;;;13.90;74.20;;;;;;5029077;28;20448;-75
2023/01/01 03:47:15;;;;;;;13.30;7.50;;;13.90;74.30;;;;;;5034999;28;20427;-76
2023/01/01 03:49:41;;;;;;;15.77;7.80;;;13.90;74.50;;;;;;5036293;28;20420;-75
2023/01/01 03:52:11;;;;;;;12.80;7.83;;;13.80;74.30;;;;;;5037523;28;20507;-75
2023/01/01 03:55:01;;;;;;;11.90;6.73;;;13.80;74.60;;;;;;5026510;28;20462;-75
2023/01/01 03:57:39;;;;;;;12.20;7.10;;;13.70;74.80;;;;;;5035978;28;21199;-75
2023/01/01 04:00:10;;;;;;;13.90;6.83;;;13.60;74.90;;;;;;5034534;28;20404;-74
2023/01/01 04:02:40;;;;;;;10.70;6.00;;;13.70;74.90;;;;;;5021817;28;20471;-76
2023/01/01 04:05:09;;;;;;;11.50;6.90;;;13.70;74.80;;;;;;5030833;28;20487;-76
2023/01/01 04:07:35;;;;;;;10.17;6.00;;;13.70;74.80;;;;;;5032242;28;20983;-76
2023/01/01 04:10:15;;;;;;;12.27;7.27;;;13.70;74.90;;;;;;5029024;28;20408;-75
2023/01/01 04:12:49;;;;;;;10.27;6.30;;;13.60;74.90;;;;;;5027919;28;20416;-75
2023/01/01 04:15:20;;;;;;;15.00;8.40;;;13.70;74.90;;;;;;5031729;28;20448;-74
2023/01/01 04:17:46;;;;;;;13.10;6.20;;;13.70;74.90;;;;;;5036296;28;20416;-77
2023/01/01 04:20:12;;;;;;;13.37;6.60;;;13.60;75.10;;;;;;5038639;28;20426;-76
2023/01/01 04:22:39;;;;;;;13.00;7.33;;;13.60;75.20;;;;;;5033231;28;20194;-76
2023/01/01 04:25:06;;;;;;;13.27;7.67;;;13.50;75.50;;;;;;5028598;28;20489;-77
2023/01/01 04:27:31;;;;;;;13.57;6.67;;;13.50;75.50;;;;;;5023536;28;20428;-76
2023/01/01 04:29:57;;;;;;;10.87;5.67;;;13.40;75.80;;;;;;5029806;28;20493;-76
2023/01/01 04:32:22;;;;;;;10.73;5.33;;;13.60;75.10;;;;;;5031733;28;20185;-76
2023/01/01 04:34:48;;;;;;;9.97;5.03;;;13.80;74.60;;;;;;5030757;28;20621;-75
2023/01/01 04:37:14;;;;;;;7.13;3.70;;;14.00;73.70;;;;;;5028899;28;20240;-75
2023/01/01 04:39:40;;;;;;;7.10;3.90;;;14.30;72.90;;;;;;5029272;28;20563;-75
2023/01/01 04:42:05;;;;;;;8.80;4.30;;;14.50;72.00;;;;;;5027143;28;20230;-74
2023/01/01 04:44:31;;;;;;;5.67;3.67;;;14.70;71.60;;;;;;5030026;28;20457;-78
2023/01/01 04:46:57;;;;;;;7.20;4.13;;;14.80;71.40;;;;;;5029227;28;20676;-75
2023/01/01 04:49:22;;;;;;;5.33;3.80;;;14.90;71.10;;;;;;5036736;28;20274;-75
2023/01/01 04:51:48;;;;;;;6.47;3.53;;;14.90;71.00;;;;;;5034722;28;20183;-74
2023/01/01 04:54:13;;;;;;;6.83;3.90;;;15.00;70.70;;;;;;5029330;28;20728;-77
2023/01/01 04:56:39;;;;;;;7.93;3.97;;;15.00;70.50;;;;;;5026611;28;20277;-79
2023/01/01 04:59:05;;;;;;;6.87;4.20;;;15.10;70.40;;;;;;5031902;28;20679;-79
2023/01/01 05:01:31;;;;;;;8.77;5.53;;;15.10;70.50;;;;;;5030361;28;20211;-76
2023/01/01 05:03:58;;;;;;;11.07;5.77;;;14.90;71.00;;;;;;5032821;28;20202;-76
2023/01/01 05:06:24;;;;;;;10.70;5.50;;;14.70;71.60;;;;;;5031259;28;20419;-76
2023/01/01 05:08:53;;;;;;;9.03;5.30;;;14.50;72.00;;;;;;5029024;28;20428;-77
2023/01/01 05:11:21;;;;;;;7.33;5.40;;;14.40;72.40;;;;;;5032285;28;20420;-77
2023/01/01 05:13:49;;;;;;;13.53;5.60;;;14.20;72.90;;;;;;5032335;28;20490;-76
2023/01/01 05:16:20;;;;;;;8.63;5.27;;;14.10;73.30;;;;;;5035490;28;20420;-78
2023/01/01 05:18:47;;;;;;;10.93;5.30;;;13.90;73.90;;;;;;5032416;28;20420;-77
2023/01/01 05:21:24;;;;;;;8.90;4.17;;;13.80;74.00;;;;;;5027137;28;20466;-78
2023/01/01 05:23:58;;;;;;;6.50;4.20;;;14.00;73.70;;;;;;5034018;28;20462;-77
2023/01/01 05:26:27;;;;;;;7.53;4.23;;;14.10;73.20;;;;;;5036029;28;20425;-76
2023/01/01 05:28:53;;;;;;;5.80;3.47;;;14.20;72.70;;;;;;5032444;28;20420;-79
2023/01/01 05:31:21;;;;;;;5.30;3.60;;;14.40;72.30;;;;;;5035060;28;20507;-76
2023/01/01 05:33:47;;;;;;;6.90;3.47;;;14.60;71.60;;;;;;5027856;28;20477;-78
2023/01/01 05:36:19;;;;;;;8.53;3.77;;;14.70;71.10;;;;;;5032682;28;20517;-78
2023/01/01 05:38:45;;;;;;;7.63;3.53;;;14.80;71.00;;;;;;5031769;28;20424;-79
2023/01/01 05:41:13;;;;;;;5.93;3.40;;;14.90;70.70;;;;;;5036614;28;20492;-77
2023/01/01 05:43:39;;;;;;;8.70;4.07;;;15.00;70.20;;;;;;5026414;28;20428;-78
2023/01/01 05:46:16;;;;;;;5.70;3.97;;;15.00;70.20;;;;;;5027922;28;20419;-77
2023/01/01 05:48:43;;;;;;;6.13;4.07;;;15.00;70.10;;;;;;5029232;28;20805;-78
2023/01/01 05:51:12;;;;;;;8.90;3.87;;;15.10;70.10;;;;;;5033778;28;20420;-76
2023/01/01 05:53:37;;;;;;;5.83;3.47;;;15.10;69.90;;;;;;5030588;28;20429;-74
2023/01/01 05:56:04;;;;;;;9.33;4.10;;;15.10;70.10;;;;;;5023140;28;20422;-77
2023/01/01 05:58:31;;;;;;;8.37;3.90;;;15.00;70.10;;;;;;5026299;28;20189;-76
2023/01/01 06:01:05;;;;;;;8.07;4.20;;;15.00;70.40;;;;;;5027587;28;20498;-76
2023/01/01 06:03:30;;;;;;;7.07;4.03;;;14.90;70.20;;;;;;5031224;28;20431;-75
2023/01/01 06:05:56;;;;;;;7.90;4.53;;;14.90;70.80;;;;;;5031737;28;20434;-76
2023/01/01 06:08:21;;;;;;;9.50;3.80;;;14.60;71.10;;;;;;5032918;28;20182;-76
2023/01/01 06:10:47;;;;;;;6.80;3.70;;;14.60;71.10;;;;;;5032923;28;20195;-77
2023/01/01 06:13:12;;;;;;;8.07;4.23;;;14.50;71.60;;;;;;5033123;28;20595;-76
2023/01/01 06:15:38;;;;;;;10.93;4.43;;;14.50;71.60;;;;;;5027031;28;20381;-77
2023/01/01 06:18:04;;;;;;;11.87;4.20;;;14.40;72.00;;;;;;5030424;28;20596;-76
2023/01/01 06:20:29;;;;;;;7.37;4.23;;;14.30;72.30;;;;;;5028688;28;20269;-76
2023/01/01 06:22:55;;;;;;;9.40;5.60;;;14.10;72.70;;;;;;5030217;28;20180;-77
2023/01/01 06:25:21;;;;;;;13.20;5.47;;;13.80;73.50;;;;;;5033305;28;20230;-76
2023/01/01 06:27:46;;;;;;;11.13;4.90;;;13.60;74.20;;;;;;5033109;28;20843;-75
2023/01/01 06:30:12;;;;;;;7.63;4.60;;;13.40;74.60;;;;;;5031333;28;20178;-78
2023/01/01 06:32:37;;;;;;;9.63;5.00;;;13.30;74.90;;;;;;5035969;28;20559;-76
2023/01/01 06:35:03;;;;;;;8.47;4.43;;;13.20;75.40;;;;;;5029967;28;20354;-78
2023/01/01 06:37:29;;;;;;;9.97;5.00;;;13.10;75.50;;;;;;5031750;28;20192;-77
2023/01/01 06:39:54;;;;;;;9.90;5.47;;;13.00;75.80;;;;;;5025866;28;20185;-76
2023/01/01 06:42:20;;;;;;;9.33;5.50;;;12.90;76.10;;;;;;5029809;28;20245;-77
2023/01/01 06:44:45;;;;;;;7.77;4.77;;;12.90;76.20;;;;;;5028801;28;20205;-75
2023/01/01 06:47:11;;;;;;;10.00;5.17;;;12.80;76.70;;;;;;5027890;28;20189;-76
2023/01/01 06:49:37;;;;;;;8.90;5.33;;;12.70;76.80;;;;;;5031285;28;20189;-77
2023/01/01 06:52:02;;;;;;;10.27;5.60;;;12.70;77.00;;;;;;5028603;28;20664;-77
2023/01/01 06:54:28;;;;;;;7.97;4.70;;;12.60;77.10;;;;;;5027509;28;20205;-77
2023/01/01 06:56:53;;;;;;;10.60;5.00;;;12.60;77.30;;;;;;5030058;28;20201;-76
2023/01/01 06:59:19;;;;;;;7.40;4.87;;;12.50;77.40;;;;;;5034824;28;20189;-77
2023/01/01 07:01:44;;;;;;;8.47;4.50;;;12.50;77.40;;;;;;5033005;28;20224;-78
2023/01/01 07:04:12;;;;;;;9.93;4.97;;;12.50;77.60;;;;;;5030879;28;20228;-78
2023/01/01 07:06:38;;;;;;;9.30;4.93;;;12.50;77.60;;;;;;5031837;28;20181;-77
2023/01/01 07:09:05;;;;;;;9.30;5.20;;;12.50;77.70;;;;;;5037556;28;20422;-76
2023/01/01 07:11:32;;;;;;;11.07;5.87;;;12.40;77.70;;;;;;5039393;28;20424;-76
2023/01/01 07:13:57;;;;;;;9.57;4.80;;;12.40;78.10;;;;;;5039108;28;20521;-78
2023/01/01 07:16:24;;;;;;;13.27;6.47;;;12.50;77.00;;;;;;5031903;28;20903;-78
2023/01/01 07:18:50;;;;;;;9.30;5.13;;;12.50;77.30;;;;;;5029570;28;20185;-77
2023/01/01 07:21:27;;;;;;;8.40;4.80;;;12.40;77.80;;;;;;5029868;28;20468;-76
2023/01/01 07:23:55;;;;;;;10.73;4.47;;;12.30;77.70;;;;;;5031345;28;20461;-77
2023/01/01 07:26:22;;;;;;;8.90;4.30;;;12.20;78.10;;;;;;5033602;28;20429;-76
2023/01/01 07:28:47;;;;;;;9.40;5.30;;;12.20;78.40;;;;;;5031748;28;20432;-76
2023/01/01 07:31:13;;;;;;;8.30;4.33;;;12.20;78.30;;;;;;5035156;28;20956;-77
2023/01/01 07:33:38;;;;;;;6.80;3.90;;;12.20;78.40;;;;;;5031750;28;20201;-77
2023/01/01 07:36:04;;;;;;;10.67;5.10;;;12.20;78.40;;;;;;5030779;28;20200;-77
2023/01/01 07:38:30;;;;;;;8.30;5.00;;;12.20;78.30;;;;;;5025562;28;20189;-77
2023/01/01 07:40:55;;;;;;;7.97;4.10;;;12.10;78.40;;;;;;5027898;28;20205;-77
2023/01/01 07:43:21;;;;;;;9.10;4.33;;;12.20;78.30;;;;;;5031357;28;20195;-76
2023/01/01 07:45:46;;;;;;;7.13;4.60;;;12.20;78.00;;;;;;5034342;28;20262;-77
2023/01/01 07:48:14;;;;;;;9.03;4.50;;;12.20;78.00;;;;;;5032953;28;20185;-76
2023/01/01 07:50:40;;;;;;;9.37;4.47;;;12.30;77.80;;;;;;5033706;28;20522;-76
2023/01/01 07:53:06;;;;;;;7.53;4.50;;;12.30;77.60;;;;;;5035359;28;20421;-77
2023/01/01 07:55:33;;;;;;;6.10;4.20;;;12.40;77.60;;;;;;5035072;28;20475;-78
2023/01/01 07:57:58;;;;;;;7.90;4.60;;;12.40;77.60;;;;;;5031043;28;20687;-76
2023/01/01 08:00:24;;;;;;;8.73;4.67;;;12.40;77.40;;;;;;5037043;28;20424;-76
2023/01/01 08:02:49;;;;;;;9.17;4.27;;;12.40;77.30;;;;;;5031690;28;20182;-78
2023/01/01 08:05:16;;;;;;;11.93;5.20;;;12.40;77.10;;;;;;5026212;28;20726;-79
2023/01/01 08:07:46;;;;;;;10.13;4.47;;;12.50;77.00;;;;;;5026791;28;20190;-77
2023/01/01 08:10:12;;;;;;;7.20;4.10;;;12.50;76.80;;;;;;5032053;28;20412;-77
2023/01/01 08:12:37;;;;;;;9.07;4.90;;;12.60;76.80;;;;;;5032027;28;20515;-78
2023/01/01 08:15:03;;;;;;;6.30;4.07;;;12.60;76.50;;;;;;5026661;28;20974;-77
2023/01/01 08:17:29;;;;;;;11.70;4.23;;;12.70;76.40;;;;;;5025898;28;20192;-77
2023/01/01 08:19:54;;;;;;;11.63;4.83;;;12.60;76.40;;;;;;5032056;28;20189;-76
2023/01/01 08:22:20;;;;;;;8.73;4.83;;;12.60;76.50;;;;;;5028306;28;20272;-78
2023/01/01 08:24:45;;;;;;;7.70;4.03;;;12.70;76.40;;;;;;5030129;28;20205;-77
2023/01/01 08:27:13;;;;;;;9.37;4.83;;;12.70;76.20;;;;;;5030918;28;20174;-78
2023/01/01 08:29:39;;;;;;;6.83;3.40;;;12.60;76.40;;;;;;5029622;28;20181;-78
2023/01/01 08:32:04;;;;;;;8.43;4.30;;;12.70;76.50;;;;;;5030062;28;20603;-78
2023/01/01 08:34:30;;;;;;;7.10;4.40;;;12.70;76.20;;;;;;5030480;28;20217;-77
2023/01/01 08:36:56;;;;;;;9.93;4.30;;;12.70;76.40;;;;;;5033011;28;20181;-78
2023/01/01 08:39:21;;;;;;;6.27;4.43;;;12.70;76.20;;;;;;5034786;28;20682;-75
2023/01/01 08:41:47;;;;;;;6.77;4.37;;;12.70;76.20;;;;;;5032080;28;20221;-79
2023/01/01 08:44:12;;;;;;;7.00;3.70;;;12.70;76.10;;;;;;5030515;28;20206;-77
2023/01/01 08:46:38;;;;;;;6.80;4.47;;;12.70;76.20;;;;;;5026445;28;20186;-77
2023/01/01 08:49:03;;;;;;;6.23;3.83;;;12.70;76.20;;;;;;5032985;28;20186;-78
2023/01/01 08:51:29;;;;;;;9.50;4.43;;;12.70;76.20;;;;;;5031718;28;20217;-79
2023/01/01 08:53:54;;;;;;;9.50;4.67;;;12.80;76.20;;;;;;5029660;28;20216;-77
2023/01/01 08:56:20;;;;;;;9.13;4.30;;;12.70;76.20;;;;;;5028865;28;20236;-78
2023/01/01 08:58:46;;;;;;;7.93;4.30;;;12.70;76.20;;;;;;5027714;28;20575;-76
2023/01/01 09:01:11;;;;;;;7.20;4.00;;;12.70;76.20;;;;;;5029939;28;20237;-76
2023/01/01 09:03:37;;;;;;;7.73;4.27;;;12.80;76.10;;;;;;5025214;28;20189;-76
2023/01/01 09:06:03;;;;;;;7.77;4.53;;;12.90;76.10;;;;;;5027527;28;20178;-76
2023/01/01 09:08:29;;;;;;;6.67;3.97;;;12.90;75.70;;;;;;5027282;28;20938;-77
2023/01/01 09:11:00;;;;;;;8.23;4.27;;;13.00;75.50;;;;;;5029606;28;20575;-77
2023/01/01 09:13:25;;;;;;;7.53;4.87;;;13.20;75.20;;;;;;5033244;28;20586;-77
2023/01/01 09:15:51;;;;;;;12.00;4.90;;;13.30;74.90;;;;;;5027329;28;20444;-75
2023/01/01 09:18:17;;;;;;;8.73;4.50;;;13.30;74.60;;;;;;5029915;28;20247;-74
2023/01/01 09:20:42;;;;;;;10.60;4.67;;;13.30;74.20;;;;;;5032986;28;20193;-77
2023/01/01 09:23:09;;;;;;;7.07;3.80;;;13.40;73.90;;;;;;5032619;28;20247;-74
2023/01/01 09:25:35;;;;;;;9.23;3.97;;;13.50;73.60;;;;;;5027197;28;20700;-77
2023/01/01 09:28:03;;;;;;;8.90;4.13;;;13.60;73.50;;;;;;5032187;28;20424;-75
2023/01/01 09:30:29;;;;;;;10.70;5.50;;;13.70;73.30;;;;;;5031826;28;20181;-75
2023/01/01 09:32:55;;;;;;;5.73;3.73;;;13.70;73.30;;;;;;5032799;28;20829;-74
2023/01/01 09:35:21;;;;;;;8.17;4.00;;;13.70;73.30;;;;;;5027115;28;20487;-76
2023/01/01 09:37:46;;;;;;;5.33;3.53;;;13.80;72.90;;;;;;5027545;28;20177;-77
2023/01/01 09:40:40;;;;;;;5.33;3.43;;;13.90;72.70;;;;;;5034598;28;20181;-76
2023/01/01 09:43:36;;;;;;;6.03;3.83;;;14.00;72.10;;;;;;5028051;28;20217;-75
2023/01/01 09:46:05;;;;;;;6.77;3.60;;;14.10;72.00;;;;;;5029517;28;20424;-76
2023/01/01 09:48:32;;;;;;;11.40;4.73;;;14.20;71.70;;;;;;5026589;28;20412;-76
2023/01/01 09:50:59;;;;;;;7.00;4.20;;;14.20;71.60;;;;;;5027694;28;20938;-76
2023/01/01 09:53:36;;;;;;;7.40;4.20;;;14.30;71.60;;;;;;5033418;28;20951;-76
2023/01/01 09:56:04;;;;;;;6.63;3.73;;;14.30;71.70;;;;;;5024661;28;20447;-76
2023/01/01 09:58:36;;;;;;;7.03;4.10;;;14.30;71.70;;;;;;5028274;28;20932;-74
2023/01/01 10:01:15;;;;;;;9.73;3.93;;;14.40;71.60;;;;;;5032600;28;20476;-75
2023/01/01 10:04:00;;;;;;;9.90;4.00;;;14.40;71.30;;;;;;5035132;28;20427;-75
2023/01/01 10:06:35;;;;;;;6.50;3.97;;;14.60;70.70;;;;;;5034334;28;20421;-74
2023/01/01 10:09:20;;;;;;;7.83;4.20;;;14.60;70.70;;;;;;5041974;28;20457;-76
2023/01/01 10:12:02;;;;;;;7.90;3.97;;;14.70;70.50;;;;;;5030683;28;20408;-74
2023/01/01 10:14:38;;;;;;;7.03;3.80;;;14.80;70.40;;;;;;5030186;28;20508;-75
2023/01/01 10:17:18;;;;;;;23.83;4.40;;;14.90;70.20;;;;;;5027149;28;20430;-76
2023/01/01 10:19:51;;;;;;;7.60;4.80;;;15.00;69.90;;;;;;5026969;28;20703;-74
2023/01/01 10:22:29;;;;;;;7.67;4.10;;;15.10;69.70;;;;;;5023788;28;20480;-74
2023/01/01 10:25:00;;;;;;;8.97;4.50;;;15.10;69.50;;;;;;5029471;28;20532;-74
2023/01/01 10:27:29;;;;;;;6.53;4.33;;;15.30;69.20;;;;;;5022514;28;20527;-77
2023/01/01 10:29:56;;;;;;;6.43;4.03;;;15.40;68.50;;;;;;5024578;28;20469;-74
2023/01/01 10:32:31;;;;;;;6.60;4.17;;;15.40;68.50;;;;;;5025697;28;20432;-74
2023/01/01 10:34:59;;;;;;;10.37;4.33;;;15.50;68.50;;;;;;5027251;28;20468;-75
2023/01/01 10:37:29;;;;;;;11.17;3.33;;;15.60;68.20;;;;;;5030188;28;20510;-75
2023/01/01 10:39:55;;;;;;;7.83;4.27;;;15.70;67.50;;;;;;5028226;28;20430;-76
2023/01/01 10:42:20;;;;;;;6.50;3.67;;;15.80;67.30;;;;;;5026344;28;20473;-75
2023/01/01 10:44:46;;;;;;;7.67;3.47;;;15.90;66.90;;;;;;5019139;28;20671;-75
2023/01/01 10:47:28;;;;;;;8.23;3.63;;;15.90;66.40;;;;;;5023715;28;20241;-76
2023/01/01 10:50:06;;;;;;;6.70;3.50;;;16.10;66.40;;;;;;5026964;28;20177;-76
2023/01/01 10:52:40;;;;;;;6.70;3.10;;;16.20;65.70;;;;;;5022433;28;20778;-76
2023/01/01 10:55:19;;;;;;;6.53;3.33;;;16.30;65.40;;;;;;5019134;28;20509;-75
2023/01/01 10:57:44;;;;;;;6.53;3.20;;;16.40;65.30;;;;;;5023865;28;20958;-76
2023/01/01 11:00:20;;;;;;;7.30;3.50;;;16.50;65.00;;;;;;5028604;28;20415;-76
2023/01/01 11:02:46;;;;;;;8.23;3.13;;;16.60;64.70;;;;;;5021994;28;20212;-75
2023/01/01 11:05:20;;;;;;;9.33;3.30;;;16.60;64.50;;;;;;5026579;28;20463;-75
2023/01/01 11:07:46;;;;;;;8.80;3.77;;;16.70;64.50;;;;;;5026521;28;20204;-76
2023/01/01 11:10:18;;;;;;;6.97;2.87;;;16.70;64.20;;;;;;5028832;28;20431;-76
2023/01/01 11:12:45;;;;;;;7.97;3.37;;;16.70;64.20;;;;;;5027023;28;20674;-76
2023/01/01 11:15:39;;;;;;;6.30;3.73;;;16.70;64.10;;;;;;5025796;28;20865;-75
2023/01/01 11:18:14;;;;;;;7.57;3.43;;;16.70;64.40;;;;;;5037062;28;20412;-77
2023/01/01 11:20:40;;;;;;;7.13;3.20;;;16.70;64.40;;;;;;5032498;28;20918;-77
2023/01/01 11:23:38;;;;;;;4.60;3.20;;;16.60;64.50;;;;;;5033342;28;20420;-75
2023/01/01 11:26:16;;;;;;;9.87;3.97;;;16.70;64.40;;;;;;5030554;28;20419;-75
2023/01/01 11:28:42;;;;;;;10.53;4.43;;;16.70;63.90;;;;;;5026869;28;20412;-75
2023/01/01 11:31:19;;;;;;;6.50;3.30;;;16.80;64.10;;;;;;5030993;28;20906;-74
2023/01/01 11:33:52;;;;;;;6.63;3.43;;;16.80;64.20;;;;;;5020989;28;20434;-74
2023/01/01 11:36:35;;;;;;;4.40;2.93;;;16.80;63.80;;;;;;5026507;28;20443;-75
2023/01/01 11:39:07;;;;;;;8.93;3.57;;;16.90;63.90;;;;;;5023261;28;20446;-74
2023/01/01 11:41:48;;;;;;;11.00;4.10;;;17.00;63.50;;;;;;5020330;28;20489;-75
2023/01/01 11:44:39;;;;;;;6.23;3.40;;;17.00;63.20;;;;;;5025954;28;20818;-74
2023/01/01 11:47:15;;;;;;;9.27;3.23;;;17.00;62.60;;;;;;5019943;28;20425;-74
2023/01/01 11:49:42;;;;;;;12.30;3.13;;;17.00;62.60;;;;;;5023463;28;20411;-75
2023/01/01 11:52:47;;;;;;;7.77;3.20;;;17.10;62.20;;;;;;5025596;28;20474;-73
2023/01/01 11:55:43;;;;;;;4.77;2.80;;;17.10;62.20;;;;;;5019948;28;20463;-78
2023/01/01 11:58:22;;;;;;;8.30;3.70;;;17.10;62.20;;;;;;5003490;28;20511;-78
2023/01/01 12:00:51;;;;;;;6.33;3.60;;;17.10;62.20;;;;;;5006125;28;20599;-78
2023/01/01 12:03:17;;;;;;;4.80;2.90;;;17.20;62.00;;;;;;5012044;28;20766;-77
2023/01/01 12:05:56;;;;;;;7.13;3.00;;;17.20;61.50;;;;;;5018237;28;20483;-77
2023/01/01 12:08:43;;;;;;;5.20;3.33;;;17.20;60.90;;;;;;5019490;28;20269;-75
2023/01/01 12:11:37;;;;;;;6.77;3.80;;;17.30;60.60;;;;;;5018848;28;20918;-76
2023/01/01 12:14:12;;;;;;;10.20;3.20;;;17.30;60.60;;;;;;5006817;28;20498;-77
2023/01/01 12:16:47;;;;;;;7.60;3.10;;;17.30;60.70;;;;;;5004620;28;20416;-73
2023/01/01 12:19:23;;;;;;;6.17;2.80;;;17.40;60.60;;;;;;5013705;28;21002;-74
2023/01/01 12:21:54;;;;;;;10.20;3.43;;;17.40;60.40;;;;;;5009075;28;20559;-75
2023/01/01 12:24:20;;;;;;;7.57;3.07;;;17.50;60.10;;;;;;5010500;28;20510;-75
2023/01/01 12:27:07;;;;;;;10.80;3.60;;;17.60;60.30;;;;;;5013122;28;20428;-73
2023/01/01 12:30:04;;;;;;;8.43;3.03;;;17.60;59.60;;;;;;5006995;28;20424;-73
2023/01/01 12:32:47;;;;;;;6.70;3.00;;;17.70;59.50;;;;;;5014986;28;20429;-74
2023/01/01 12:35:25;;;;;;;6.27;3.80;;;17.70;59.60;;;;;;5024837;28;20905;-76
2023/01/01 12:38:11;;;;;;;7.77;2.90;;;17.80;59.60;;;;;;5035213;28;20422;-75
2023/01/01 12:40:40;;;;;;;6.27;3.13;;;17.80;59.10;;;;;;5032486;28;20446;-73
2023/01/01 12:43:29;;;;;;;9.70;3.00;;;17.80;59.20;;;;;;5038953;28;20419;-75
2023/01/01 12:46:14;;;;;;;6.67;2.70;;;17.80;59.10;;;;;;5032962;28;20447;-74
2023/01/01 12:49:17;;;;;;;10.20;3.17;;;17.90;58.40;;;;;;5034559;28;20508;-74
2023/01/01 12:52:34;;;;;;;6.50;2.70;;;17.90;58.50;;;;;;5027911;28;20957;-75
2023/01/01 12:55:30;;;;;;;8.87;3.20;;;17.90;58.50;;;;;;5039906;28;20500;-75
2023/01/01 12:58:06;;;;;;;6.33;3.03;;;18.00;58.50;;;;;;5028555;28;20438;-76
2023/01/01 13:00:36;;;;;;;6.67;2.70;;;18.00;58.00;;;;;;5028008;28;20929;-77
2023/01/01 13:03:13;;;;;;;6.90;3.80;;;18.00;58.10;;;;;;5035852;28;20421;-77